Terminal Aerodrome Forecast
Issued by NWS

Home | Current Version | Previous Version | Graphics & Text | Print | Product List | Glossary On
Versions: 1 2 3 4 5 6 7 8 9 10 11 12 13 14 15 16 17 18
000
FTUS43 KGRB 210500
TAFATW
TAF
KATW 210520Z 2106/2206 27006KT P6SM SCT035 OVC080
     FM210800 36009KT 6SM -SHRA BR SCT012 OVC020
      TEMPO 2109/2113 4SM SHRA BR BKN006 OVC012
     FM211400 36013G20KT P6SM BKN015 BKN035
     FM211800 36012G18KT P6SM BKN025
     FM212100 36012G18KT P6SM SCT035
     FM212300 35006KT P6SM SKC=

USA.gov is the U.S. government's official web portal to all federal, state and local government web resources and services.